Time,TemperatureF,DewpointF,PressureIn,WindDirection,WindDirectionDegrees,WindSpeedMPH,WindSpeedGustMPH,Humidity,HourlyPrecipIn,Conditions,Clouds,dailyrainin,SoftwareType,DateUTC
2013-04-20 00:02:00,56.0,56.0,-100.00,SSW,200,31.0,43.0,100,-99.99,,,-99.99,,2013-04-20 04:02:00,
2013-04-20 00:12:00,56.0,56.0,-100.00,SSW,200,31.0,43.0,100,-99.99,,,-99.99,,2013-04-20 04:12:00,
2013-04-20 00:22:00,56.0,56.0,-100.00,SSW,210,29.0,38.0,100,-99.99,,,-99.99,,2013-04-20 04:22:00,
2013-04-20 00:32:00,54.0,54.0,-100.00,SSW,200,27.0,34.0,100,-99.99,,,-99.99,,2013-04-20 04:32:00,
2013-04-20 00:42:00,54.0,54.0,-100.00,SSW,200,27.0,34.0,100,-99.99,,,-99.99,,2013-04-20 04:42:00,
2013-04-20 00:52:00,54.0,54.0,-100.00,SSW,200,27.0,34.0,100,-99.99,,,-99.99,,2013-04-20 04:52:00,
2013-04-20 01:01:00,54.0,54.0,-100.00,SSW,210,20.0,22.0,100,-99.99,,,-99.99,,2013-04-20 05:01:00,
2013-04-20 01:12:00,54.0,54.0,-100.00,SSW,210,20.0,22.0,100,-99.99,,,-99.99,,2013-04-20 05:12:00,
2013-04-20 01:21:00,54.0,54.0,-100.00,SSW,200,20.0,25.0,100,-99.99,,,-99.99,,2013-04-20 05:21:00,
2013-04-20 01:32:00,54.0,54.0,-100.00,SSW,200,20.0,25.0,100,-99.99,,,-99.99,,2013-04-20 05:32:00,
2013-04-20 01:42:00,55.0,55.0,-100.00,SSW,210,22.0,29.0,100,-99.99,,,-99.99,,2013-04-20 05:42:00,
2013-04-20 01:51:00,55.0,55.0,-100.00,SSW,210,22.0,29.0,100,-99.99,,,-99.99,,2013-04-20 05:51:00,
2013-04-20 02:01:00,54.0,54.0,-100.00,SSW,210,20.0,29.0,100,-99.99,,,-99.99,,2013-04-20 06:01:00,
2013-04-20 02:12:00,54.0,54.0,-100.00,SSW,210,20.0,29.0,100,-99.99,,,-99.99,,2013-04-20 06:12:00,
2013-04-20 02:21:00,52.0,52.0,-100.00,SSW,210,16.0,20.0,99,-99.99,,,-99.99,,2013-04-20 06:21:00,
2013-04-20 02:31:00,52.0,52.0,-100.00,SSW,210,18.0,20.0,99,-99.99,,,-99.99,,2013-04-20 06:31:00,
2013-04-20 02:42:00,52.0,52.0,-100.00,SSW,210,18.0,20.0,99,-99.99,,,-99.99,,2013-04-20 06:42:00,
2013-04-20 02:52:00,52.0,52.0,-100.00,SSW,210,18.0,20.0,99,-99.99,,,-99.99,,2013-04-20 06:52:00,
2013-04-20 03:01:00,50.0,50.0,-100.00,SW,220,13.0,16.0,99,-99.99,,,-99.99,,2013-04-20 07:01:00,
2013-04-20 03:11:00,50.0,50.0,-100.00,SW,220,13.0,16.0,99,-99.99,,,-99.99,,2013-04-20 07:11:00,
2013-04-20 03:21:00,51.0,50.0,-100.00,SW,230,16.0,18.0,99,-99.99,,,-99.99,,2013-04-20 07:21:00,
2013-04-20 03:31:00,51.0,50.0,-100.00,SW,230,16.0,18.0,99,-99.99,,,-99.99,,2013-04-20 07:31:00,
2013-04-20 03:42:00,47.0,47.0,-100.00,SW,230,13.0,16.0,99,-99.99,,,-99.99,,2013-04-20 07:42:00,
2013-04-20 03:52:00,47.0,47.0,-100.00,SW,230,13.0,16.0,99,-99.99,,,-99.99,,2013-04-20 07:52:00,
2013-04-20 04:01:00,47.0,47.0,-100.00,SW,230,13.0,16.0,99,-99.99,,,-99.99,,2013-04-20 08:01:00,
2013-04-20 04:11:00,47.0,47.0,-100.00,SW,230,13.0,16.0,99,-99.99,,,-99.99,,2013-04-20 08:11:00,
2013-04-20 04:21:00,47.0,46.0,-100.00,WSW,250,16.0,20.0,96,-99.99,,,-99.99,,2013-04-20 08:21:00,
2013-04-20 04:31:00,47.0,46.0,-100.00,WSW,250,16.0,20.0,96,-99.99,,,-99.99,,2013-04-20 08:31:00,
2013-04-20 05:01:00,47.0,46.0,-100.00,WSW,240,13.0,16.0,95,-99.99,,,-99.99,,2013-04-20 09:01:00,
2013-04-20 05:11:00,47.0,46.0,-100.00,WSW,240,13.0,16.0,95,-99.99,,,-99.99,,2013-04-20 09:11:00,
2013-04-20 05:21:00,47.0,46.0,-100.00,WSW,250,16.0,25.0,95,-99.99,,,-99.99,,2013-04-20 09:21:00,
2013-04-20 05:32:00,47.0,46.0,-100.00,WSW,250,16.0,25.0,95,-99.99,,,-99.99,,2013-04-20 09:32:00,
2013-04-20 05:43:00,47.0,46.0,-100.00,WSW,250,16.0,20.0,96,-99.99,,,-99.99,,2013-04-20 09:43:00,
2013-04-20 05:52:00,47.0,46.0,-100.00,WSW,250,16.0,20.0,96,-99.99,,,-99.99,,2013-04-20 09:52:00,
2013-04-20 06:12:00,47.0,45.0,-100.00,WSW,250,16.0,20.0,95,-99.99,,,-99.99,,2013-04-20 10:12:00,
2013-04-20 06:22:00,47.0,45.0,-100.00,WSW,250,16.0,20.0,95,-99.99,,,-99.99,,2013-04-20 10:22:00,
2013-04-20 06:32:00,47.0,45.0,-100.00,WSW,250,16.0,20.0,95,-99.99,,,-99.99,,2013-04-20 10:32:00,
2013-04-20 06:42:00,47.0,46.0,-100.00,NW,320,11.0,16.0,96,-99.99,,,-99.99,,2013-04-20 10:42:00,
2013-04-20 06:52:00,47.0,46.0,-100.00,NW,320,11.0,16.0,96,-99.99,,,-99.99,,2013-04-20 10:52:00,
2013-04-20 07:00:00,46.0,44.0,-100.00,NW,320,13.0,16.0,94,-99.99,,,-99.99,,2013-04-20 11:00:00,
2013-04-20 07:02:00,46.0,45.0,-100.00,NW,320,11.0,13.0,95,-99.99,,,-99.99,,2013-04-20 11:02:00,
2013-04-20 07:11:00,46.0,45.0,-100.00,NW,320,11.0,13.0,95,-99.99,,,-99.99,,2013-04-20 11:11:00,
2013-04-20 07:22:00,46.0,45.0,-100.00,NW,310,11.0,16.0,96,-99.99,,,-99.99,,2013-04-20 11:22:00,
2013-04-20 07:31:00,46.0,45.0,-100.00,NW,310,11.0,16.0,96,-99.99,,,-99.99,,2013-04-20 11:31:00,
2013-04-20 07:42:00,46.0,44.0,-100.00,NW,320,13.0,16.0,94,-99.99,,,-99.99,,2013-04-20 11:42:00,
2013-04-20 07:52:00,46.0,44.0,-100.00,NW,320,13.0,16.0,94,-99.99,,,-99.99,,2013-04-20 11:52:00,
2013-04-20 08:00:00,45.0,42.0,-100.00,NW,320,13.0,18.0,89,-99.99,,,-99.99,,2013-04-20 12:00:00,
2013-04-20 08:11:00,45.0,43.0,-100.00,NW,320,16.0,20.0,92,-99.99,,,-99.99,,2013-04-20 12:11:00,
2013-04-20 08:22:00,45.0,42.0,-100.00,NW,320,18.0,20.0,89,-99.99,,,-99.99,,2013-04-20 12:22:00,
2013-04-20 08:32:00,45.0,42.0,-100.00,NW,320,18.0,20.0,89,-99.99,,,-99.99,,2013-04-20 12:32:00,
2013-04-20 08:41:00,45.0,42.0,-100.00,NW,320,13.0,18.0,89,-99.99,,,-99.99,,2013-04-20 12:41:00,
2013-04-20 08:51:00,45.0,42.0,-100.00,NW,320,13.0,18.0,89,-99.99,,,-99.99,,2013-04-20 12:51:00,
2013-04-20 09:11:00,45.0,42.0,-100.00,NW,320,11.0,13.0,87,-99.99,,,-99.99,,2013-04-20 13:11:00,
2013-04-20 09:21:00,45.0,42.0,-100.00,NW,320,11.0,13.0,87,-99.99,,,-99.99,,2013-04-20 13:21:00,
2013-04-20 09:31:00,45.0,42.0,-100.00,NW,320,11.0,13.0,87,-99.99,,,-99.99,,2013-04-20 13:31:00,
2013-04-20 09:41:00,45.0,42.0,-100.00,WNW,300,9.0,11.0,87,-99.99,,,-99.99,,2013-04-20 13:41:00,
2013-04-20 09:52:00,45.0,42.0,-100.00,WNW,300,9.0,11.0,87,-99.99,,,-99.99,,2013-04-20 13:52:00,
2013-04-20 10:01:00,45.0,42.0,-100.00,WNW,300,9.0,11.0,87,-99.99,,,-99.99,,2013-04-20 14:01:00,
2013-04-20 10:11:00,46.0,42.0,-100.00,WNW,300,7.0,9.0,87,-99.99,,,-99.99,,2013-04-20 14:11:00,
2013-04-20 10:21:00,46.0,43.0,-100.00,WNW,290,4.0,7.0,88,-99.99,,,-99.99,,2013-04-20 14:21:00,
2013-04-20 10:31:00,46.0,43.0,-100.00,WSW,250,4.0,4.0,88,-99.99,,,-99.99,,2013-04-20 14:31:00,
2013-04-20 10:41:00,46.0,43.0,-100.00,WSW,250,4.0,4.0,88,-99.99,,,-99.99,,2013-04-20 14:41:00,
2013-04-20 10:51:00,46.0,43.0,-100.00,WSW,250,4.0,4.0,88,-99.99,,,-99.99,,2013-04-20 14:51:00,
2013-04-20 11:00:00,46.0,43.0,-100.00,SW,220,7.0,9.0,88,-99.99,,,-99.99,,2013-04-20 15:00:00,
2013-04-20 11:01:00,45.0,43.0,-100.00,SW,220,7.0,9.0,91,-99.99,,,-99.99,,2013-04-20 15:01:00,
2013-04-20 11:11:00,45.0,43.0,-100.00,SW,220,7.0,9.0,91,-99.99,,,-99.99,,2013-04-20 15:11:00,
2013-04-20 11:21:00,45.0,43.0,-100.00,SW,230,7.0,9.0,90,-99.99,,,-99.99,,2013-04-20 15:21:00,
2013-04-20 11:33:00,45.0,43.0,-100.00,SW,230,7.0,9.0,90,-99.99,,,-99.99,,2013-04-20 15:33:00,
2013-04-20 11:43:00,46.0,43.0,-100.00,SW,220,7.0,9.0,88,-99.99,,,-99.99,,2013-04-20 15:43:00,
2013-04-20 11:53:00,46.0,43.0,-100.00,SW,220,7.0,9.0,88,-99.99,,,-99.99,,2013-04-20 15:53:00,
2013-04-20 12:12:00,46.0,43.0,-100.00,SSW,210,9.0,9.0,90,-99.99,,,-99.99,,2013-04-20 16:12:00,
2013-04-20 12:23:00,46.0,43.0,-100.00,SSW,210,9.0,9.0,90,-99.99,,,-99.99,,2013-04-20 16:23:00,
2013-04-20 12:32:00,46.0,43.0,-100.00,SSW,210,9.0,9.0,90,-99.99,,,-99.99,,2013-04-20 16:32:00,
2013-04-20 12:41:00,47.0,43.0,-100.00,SW,220,9.0,11.0,86,-99.99,,,-99.99,,2013-04-20 16:41:00,
2013-04-20 12:52:00,47.0,43.0,-100.00,SW,220,9.0,11.0,86,-99.99,,,-99.99,,2013-04-20 16:52:00,
2013-04-20 13:02:00,48.0,41.0,-100.00,SW,230,13.0,16.0,78,-99.99,,,-99.99,,2013-04-20 17:02:00,
2013-04-20 13:11:00,48.0,41.0,-100.00,SW,230,13.0,16.0,78,-99.99,,,-99.99,,2013-04-20 17:11:00,
2013-04-20 13:22:00,48.0,39.0,-100.00,WSW,240,16.0,20.0,72,-99.99,,,-99.99,,2013-04-20 17:22:00,
2013-04-20 13:32:00,48.0,39.0,-100.00,WSW,240,16.0,20.0,72,-99.99,,,-99.99,,2013-04-20 17:32:00,
2013-04-20 13:41:00,48.0,39.0,-100.00,WSW,240,16.0,20.0,72,-99.99,,,-99.99,,2013-04-20 17:41:00,
2013-04-20 13:52:00,48.0,39.0,-100.00,WSW,240,16.0,20.0,72,-99.99,,,-99.99,,2013-04-20 17:52:00,
2013-04-20 14:00:00,50.0,33.0,-100.00,WNW,290,18.0,22.0,53,-99.99,,,-99.99,,2013-04-20 18:00:00,
2013-04-20 14:01:00,48.0,39.0,-100.00,WSW,240,18.0,22.0,71,-99.99,,,-99.99,,2013-04-20 18:01:00,
2013-04-20 14:12:00,48.0,39.0,-100.00,WSW,240,18.0,22.0,71,-99.99,,,-99.99,,2013-04-20 18:12:00,
2013-04-20 14:22:00,48.0,38.0,-100.00,West,260,16.0,20.0,67,-99.99,,,-99.99,,2013-04-20 18:22:00,
2013-04-20 14:32:00,50.0,33.0,-100.00,WNW,290,18.0,22.0,53,-99.99,,,-99.99,,2013-04-20 18:32:00,
2013-04-20 14:41:00,50.0,33.0,-100.00,WNW,290,18.0,22.0,53,-99.99,,,-99.99,,2013-04-20 18:41:00,
2013-04-20 14:52:00,50.0,33.0,-100.00,WNW,290,18.0,22.0,53,-99.99,,,-99.99,,2013-04-20 18:52:00,
2013-04-20 15:11:00,48.0,39.0,-100.00,WSW,250,9.0,13.0,72,-99.99,,,-99.99,,2013-04-20 19:11:00,
2013-04-20 15:21:00,48.0,39.0,-100.00,WSW,250,9.0,13.0,72,-99.99,,,-99.99,,2013-04-20 19:21:00,
2013-04-20 15:31:00,48.0,39.0,-100.00,WSW,250,9.0,13.0,72,-99.99,,,-99.99,,2013-04-20 19:31:00,
2013-04-20 15:41:00,47.0,40.0,-100.00,SW,230,9.0,11.0,75,-99.99,,,-99.99,,2013-04-20 19:41:00,
2013-04-20 15:52:00,47.0,40.0,-100.00,SW,230,9.0,11.0,75,-99.99,,,-99.99,,2013-04-20 19:52:00,
2013-04-20 16:01:00,48.0,38.0,-100.00,WSW,250,9.0,11.0,68,-99.99,,,-99.99,,2013-04-20 20:01:00,
2013-04-20 16:11:00,48.0,38.0,-100.00,WSW,250,9.0,11.0,68,-99.99,,,-99.99,,2013-04-20 20:11:00,
2013-04-20 16:21:00,47.0,38.0,-100.00,WSW,240,11.0,13.0,69,-99.99,,,-99.99,,2013-04-20 20:21:00,
2013-04-20 16:31:00,47.0,38.0,-100.00,WSW,240,11.0,13.0,69,-99.99,,,-99.99,,2013-04-20 20:31:00,
2013-04-20 16:42:00,48.0,37.0,-100.00,SW,220,13.0,18.0,66,-99.99,,,-99.99,,2013-04-20 20:42:00,
2013-04-20 16:51:00,48.0,37.0,-100.00,SW,220,13.0,18.0,66,-99.99,,,-99.99,,2013-04-20 20:51:00,
2013-04-20 17:01:00,48.0,37.0,-100.00,WSW,240,11.0,13.0,64,-99.99,,,-99.99,,2013-04-20 21:01:00,
2013-04-20 17:12:00,48.0,37.0,-100.00,WSW,240,11.0,13.0,64,-99.99,,,-99.99,,2013-04-20 21:12:00,
2013-04-20 17:21:00,49.0,37.0,-100.00,WSW,240,11.0,16.0,65,-99.99,,,-99.99,,2013-04-20 21:21:00,
2013-04-20 17:32:00,49.0,37.0,-100.00,WSW,240,11.0,13.0,63,-99.99,,,-99.99,,2013-04-20 21:32:00,
2013-04-20 17:42:00,49.0,37.0,-100.00,WSW,240,11.0,13.0,63,-99.99,,,-99.99,,2013-04-20 21:42:00,
2013-04-20 17:52:00,49.0,37.0,-100.00,WSW,240,11.0,13.0,63,-99.99,,,-99.99,,2013-04-20 21:52:00,
2013-04-20 18:02:00,50.0,37.0,-100.00,WSW,250,13.0,16.0,60,-99.99,,,-99.99,,2013-04-20 22:02:00,
2013-04-20 18:12:00,50.0,37.0,-100.00,WSW,250,13.0,16.0,60,-99.99,,,-99.99,,2013-04-20 22:12:00,
2013-04-20 18:22:00,50.0,37.0,-100.00,WSW,240,11.0,13.0,62,-99.99,,,-99.99,,2013-04-20 22:22:00,
2013-04-20 18:32:00,50.0,37.0,-100.00,WSW,240,11.0,13.0,62,-99.99,,,-99.99,,2013-04-20 22:32:00,
2013-04-20 18:41:00,49.0,39.0,-100.00,WSW,240,11.0,13.0,67,-99.99,,,-99.99,,2013-04-20 22:41:00,
2013-04-20 18:52:00,49.0,39.0,-100.00,WSW,240,11.0,13.0,67,-99.99,,,-99.99,,2013-04-20 22:52:00,
2013-04-20 19:02:00,49.0,40.0,-100.00,West,260,13.0,16.0,69,-99.99,,,-99.99,,2013-04-20 23:02:00,
2013-04-20 19:11:00,49.0,40.0,-100.00,West,260,13.0,16.0,69,-99.99,,,-99.99,,2013-04-20 23:11:00,
2013-04-20 19:22:00,49.0,40.0,-100.00,West,260,11.0,16.0,71,-99.99,,,-99.99,,2013-04-20 23:22:00,
2013-04-20 19:31:00,49.0,40.0,-100.00,West,260,11.0,16.0,71,-99.99,,,-99.99,,2013-04-20 23:31:00,
2013-04-20 19:41:00,49.0,41.0,-100.00,West,260,11.0,13.0,72,-99.99,,,-99.99,,2013-04-20 23:41:00,
2013-04-20 19:52:00,49.0,41.0,-100.00,West,260,11.0,13.0,72,-99.99,,,-99.99,,2013-04-20 23:52:00,
2013-04-20 20:01:00,49.0,41.0,-100.00,West,270,9.0,13.0,72,-99.99,,,-99.99,,2013-04-21 00:01:00,
2013-04-20 20:11:00,49.0,41.0,-100.00,West,270,9.0,13.0,72,-99.99,,,-99.99,,2013-04-21 00:11:00,
2013-04-20 20:21:00,49.0,41.0,-100.00,West,260,9.0,11.0,73,-99.99,,,-99.99,,2013-04-21 00:21:00,
2013-04-20 20:31:00,49.0,41.0,-100.00,West,260,9.0,11.0,73,-99.99,,,-99.99,,2013-04-21 00:31:00,
2013-04-20 20:41:00,51.0,39.0,-100.00,West,280,11.0,16.0,64,-99.99,,,-99.99,,2013-04-21 00:41:00,
2013-04-20 20:51:00,51.0,39.0,-100.00,West,280,11.0,16.0,64,-99.99,,,-99.99,,2013-04-21 00:51:00,
2013-04-20 21:01:00,51.0,38.0,-100.00,WNW,300,13.0,13.0,60,-99.99,,,-99.99,,2013-04-21 01:01:00,
2013-04-20 21:11:00,51.0,38.0,-100.00,WNW,300,13.0,13.0,60,-99.99,,,-99.99,,2013-04-21 01:11:00,
2013-04-20 21:21:00,51.0,37.0,-100.00,WNW,300,13.0,18.0,57,-99.99,,,-99.99,,2013-04-21 01:21:00,
2013-04-20 21:31:00,51.0,37.0,-100.00,WNW,300,13.0,18.0,57,-99.99,,,-99.99,,2013-04-21 01:31:00,
2013-04-20 21:41:00,51.0,37.0,-100.00,WNW,300,13.0,16.0,58,-99.99,,,-99.99,,2013-04-21 01:41:00,
2013-04-20 21:52:00,51.0,37.0,-100.00,WNW,300,13.0,16.0,58,-99.99,,,-99.99,,2013-04-21 01:52:00,
2013-04-20 22:01:00,51.0,35.0,-100.00,WNW,300,13.0,18.0,53,-99.99,,,-99.99,,2013-04-21 02:01:00,
2013-04-20 22:11:00,51.0,35.0,-100.00,WNW,300,13.0,18.0,53,-99.99,,,-99.99,,2013-04-21 02:11:00,
2013-04-20 22:21:00,51.0,35.0,-100.00,WNW,300,18.0,20.0,52,-99.99,,,-99.99,,2013-04-21 02:21:00,
2013-04-20 22:31:00,51.0,35.0,-100.00,WNW,300,18.0,20.0,52,-99.99,,,-99.99,,2013-04-21 02:31:00,
2013-04-20 22:41:00,51.0,34.0,-100.00,WNW,300,18.0,20.0,51,-99.99,,,-99.99,,2013-04-21 02:41:00,
2013-04-20 22:51:00,51.0,34.0,-100.00,WNW,300,18.0,20.0,51,-99.99,,,-99.99,,2013-04-21 02:51:00,
2013-04-20 23:01:00,50.0,35.0,-100.00,WNW,300,16.0,18.0,54,-99.99,,,-99.99,,2013-04-21 03:01:00,
2013-04-20 23:11:00,50.0,35.0,-100.00,WNW,300,16.0,18.0,54,-99.99,,,-99.99,,2013-04-21 03:11:00,
2013-04-20 23:21:00,51.0,33.0,-100.00,NW,310,18.0,22.0,51,-99.99,,,-99.99,,2013-04-21 03:21:00,
2013-04-20 23:32:00,51.0,33.0,-100.00,NW,310,18.0,22.0,51,-99.99,,,-99.99,,2013-04-21 03:32:00,
2013-04-20 23:42:00,50.0,33.0,-100.00,NW,320,20.0,25.0,52,-99.99,,,-99.99,,2013-04-21 03:42:00,
2013-04-20 23:52:00,50.0,33.0,-100.00,NW,320,20.0,25.0,52,-99.99,,,-99.99,,2013-04-21 03:52:00,